Terminal Aerodrome Forecast
Issued by NWS

Home | Current Version | Previous Version | Text Only | Print | Product List | Glossary On
Versions: 1 2 3 4 5 6 7 8 9 10 11 12 13 14 15 16 17 18 19 20 21
000
FTUS43 KGRB 291128
TAFATW
TAF
KATW 291128Z 2912/3012 18008KT P6SM SCT050 OVC080
      TEMPO 2912/2916 6SM -SHRA BKN040
     FM291600 21014G24KT P6SM VCSH SCT035 BKN080
      TEMPO 2923/3003 3SM TSRA BKN025CB
     FM300300 VRB03KT 5SM -SHRA BR BKN012 OVC035
     FM300700 36005KT 3SM SHRA BR OVC006
     FM301100 04011KT 6SM -SHRA SCT006 OVC017=

USA.gov is the U.S. government's official web portal to all federal, state and local government web resources and services.